sensor_id;sensor_type;location;lat;lon;timestamp;pressure;altitude;pressure_sealevel;temperature;humidity
59825;BME280;45703;50.898;6.054;2023-02-23T00:01:19;99847.59;;;9.01;100.00
59825;BME280;45703;50.898;6.054;2023-02-23T00:03:48;99844.91;;;9.01;100.00
59825;BME280;45703;50.898;6.054;2023-02-23T00:06:16;99843.31;;;9.00;100.00
59825;BME280;45703;50.898;6.054;2023-02-23T00:08:42;99853.16;;;8.99;100.00
59825;BME280;45703;50.898;6.054;2023-02-23T00:11:10;99853.16;;;8.99;100.00
59825;BME280;45703;50.898;6.054;2023-02-23T00:13:36;99849.91;;;8.97;100.00
59825;BME280;45703;50.898;6.054;2023-02-23T00:18:31;99853.66;;;8.90;100.00
59825;BME280;45703;50.898;6.054;2023-02-23T00:21:05;99845.81;;;8.95;100.00
59825;BME280;45703;50.898;6.054;2023-02-23T00:23:30;99844.81;;;8.89;100.00
59825;BME280;45703;50.898;6.054;2023-02-23T00:25:56;99852.38;;;8.92;100.00
59825;BME280;45703;50.898;6.054;2023-02-23T00:28:23;99838.91;;;8.87;100.00
59825;BME280;45703;50.898;6.054;2023-02-23T00:30:49;99840.19;;;8.85;100.00
59825;BME280;45703;50.898;6.054;2023-02-23T00:33:14;99847.13;;;8.86;100.00
59825;BME280;45703;50.898;6.054;2023-02-23T00:35:40;99852.91;;;8.83;100.00
59825;BME280;45703;50.898;6.054;2023-02-23T00:38:06;99847.19;;;8.79;100.00
59825;BME280;45703;50.898;6.054;2023-02-23T00:40:32;99846.59;;;8.77;100.00
59825;BME280;45703;50.898;6.054;2023-02-23T00:42:57;99843.34;;;8.75;100.00
59825;BME280;45703;50.898;6.054;2023-02-23T00:45:22;99843.94;;;8.77;100.00
59825;BME280;45703;50.898;6.054;2023-02-23T00:47:49;99840.22;;;8.78;100.00
59825;BME280;45703;50.898;6.054;2023-02-23T00:50:16;99833.13;;;8.72;100.00
59825;BME280;45703;50.898;6.054;2023-02-23T00:52:42;99842.53;;;8.75;100.00
59825;BME280;45703;50.898;6.054;2023-02-23T00:55:12;99835.78;;;8.72;100.00
59825;BME280;45703;50.898;6.054;2023-02-23T00:57:37;99849.25;;;8.77;100.00
59825;BME280;45703;50.898;6.054;2023-02-23T01:00:06;99840.50;;;8.70;100.00
59825;BME280;45703;50.898;6.054;2023-02-23T01:02:44;99849.69;;;8.74;100.00
59825;BME280;45703;50.898;6.054;2023-02-23T01:05:10;99844.38;;;8.74;100.00
59825;BME280;45703;50.898;6.054;2023-02-23T01:07:36;99845.63;;;8.72;100.00
59825;BME280;45703;50.898;6.054;2023-02-23T01:10:03;99839.47;;;8.71;100.00
59825;BME280;45703;50.898;6.054;2023-02-23T01:12:43;99852.34;;;8.74;100.00
59825;BME280;45703;50.898;6.054;2023-02-23T01:15:09;99856.44;;;8.77;100.00
59825;BME280;45703;50.898;6.054;2023-02-23T01:17:36;99859.47;;;8.80;100.00
59825;BME280;45703;50.898;6.054;2023-02-23T01:20:02;99847.94;;;8.86;100.00
59825;BME280;45703;50.898;6.054;2023-02-23T01:22:32;99853.09;;;8.81;100.00
59825;BME280;45703;50.898;6.054;2023-02-23T01:24:57;99860.22;;;8.87;100.00
59825;BME280;45703;50.898;6.054;2023-02-23T01:27:22;99849.47;;;8.76;100.00
59825;BME280;45703;50.898;6.054;2023-02-23T01:29:49;99855.00;;;8.74;100.00
59825;BME280;45703;50.898;6.054;2023-02-23T01:32:15;99853.97;;;8.75;100.00
59825;BME280;45703;50.898;6.054;2023-02-23T01:34:40;99857.91;;;8.73;100.00
59825;BME280;45703;50.898;6.054;2023-02-23T01:37:05;99854.47;;;8.66;100.00
59825;BME280;45703;50.898;6.054;2023-02-23T01:39:32;99855.88;;;8.68;100.00
59825;BME280;45703;50.898;6.054;2023-02-23T01:41:58;99853.66;;;8.65;100.00
59825;BME280;45703;50.898;6.054;2023-02-23T01:46:48;99858.38;;;8.63;100.00
59825;BME280;45703;50.898;6.054;2023-02-23T01:49:33;99845.53;;;8.60;100.00
59825;BME280;45703;50.898;6.054;2023-02-23T01:52:06;99853.50;;;8.60;100.00
59825;BME280;45703;50.898;6.054;2023-02-23T01:54:41;99851.88;;;8.59;100.00
59825;BME280;45703;50.898;6.054;2023-02-23T01:57:11;99852.31;;;8.57;100.00
59825;BME280;45703;50.898;6.054;2023-02-23T01:59:41;99854.75;;;8.58;100.00
59825;BME280;45703;50.898;6.054;2023-02-23T02:02:07;99854.16;;;8.56;100.00
59825;BME280;45703;50.898;6.054;2023-02-23T02:04:38;99852.75;;;8.54;100.00
59825;BME280;45703;50.898;6.054;2023-02-23T02:07:18;99837.66;;;8.48;100.00
59825;BME280;45703;50.898;6.054;2023-02-23T02:09:46;99847.63;;;8.52;100.00
59825;BME280;45703;50.898;6.054;2023-02-23T02:12:30;99848.47;;;8.53;100.00
59825;BME280;45703;50.898;6.054;2023-02-23T02:14:57;99851.91;;;8.53;100.00
59825;BME280;45703;50.898;6.054;2023-02-23T02:17:27;99838.47;;;8.48;100.00
59825;BME280;45703;50.898;6.054;2023-02-23T02:23:27;99849.50;;;8.52;100.00
59825;BME280;45703;50.898;6.054;2023-02-23T02:26:17;99842.97;;;8.48;100.00
59825;BME280;45703;50.898;6.054;2023-02-23T02:31:59;99848.31;;;8.48;100.00
59825;BME280;45703;50.898;6.054;2023-02-23T02:41:01;99844.00;;;8.47;100.00
59825;BME280;45703;50.898;6.054;2023-02-23T02:43:47;99840.16;;;8.43;100.00
59825;BME280;45703;50.898;6.054;2023-02-23T02:46:25;99829.94;;;8.40;100.00
59825;BME280;45703;50.898;6.054;2023-02-23T02:48:58;99837.06;;;8.46;100.00
59825;BME280;45703;50.898;6.054;2023-02-23T02:51:44;99838.09;;;8.45;100.00
59825;BME280;45703;50.898;6.054;2023-02-23T02:54:45;99840.75;;;8.45;100.00
59825;BME280;45703;50.898;6.054;2023-02-23T02:57:09;99828.09;;;8.40;100.00
59825;BME280;45703;50.898;6.054;2023-02-23T02:59:46;99833.19;;;8.42;100.00
59825;BME280;45703;50.898;6.054;2023-02-23T03:02:33;99824.84;;;8.38;100.00
59825;BME280;45703;50.898;6.054;2023-02-23T03:05:20;99830.97;;;8.39;100.00
59825;BME280;45703;50.898;6.054;2023-02-23T03:11:02;99838.50;;;8.42;100.00
59825;BME280;45703;50.898;6.054;2023-02-23T03:19:33;99837.69;;;8.41;100.00
59825;BME280;45703;50.898;6.054;2023-02-23T03:22:38;99843.81;;;8.42;100.00
59825;BME280;45703;50.898;6.054;2023-02-23T03:25:44;99842.19;;;8.41;100.00
59825;BME280;45703;50.898;6.054;2023-02-23T03:28:35;99844.22;;;8.45;100.00
59825;BME280;45703;50.898;6.054;2023-02-23T03:31:38;99842.59;;;8.44;100.00
59825;BME280;45703;50.898;6.054;2023-02-23T03:34:29;99839.53;;;8.41;100.00
59825;BME280;45703;50.898;6.054;2023-02-23T03:40:31;99844.84;;;8.41;100.00
59825;BME280;45703;50.898;6.054;2023-02-23T03:43:19;99846.72;;;8.40;100.00
59825;BME280;45703;50.898;6.054;2023-02-23T03:46:08;99847.94;;;8.38;100.00
59825;BME280;45703;50.898;6.054;2023-02-23T03:48:56;99855.72;;;8.39;100.00
59825;BME280;45703;50.898;6.054;2023-02-23T03:51:44;99850.41;;;8.39;100.00
59825;BME280;45703;50.898;6.054;2023-02-23T03:54:33;99847.94;;;8.38;100.00
59825;BME280;45703;50.898;6.054;2023-02-23T03:57:20;99852.03;;;8.40;100.00
59825;BME280;45703;50.898;6.054;2023-02-23T04:00:10;99836.06;;;8.40;100.00
59825;BME280;45703;50.898;6.054;2023-02-23T04:02:55;99842.44;;;8.39;100.00
59825;BME280;45703;50.898;6.054;2023-02-23T04:05:41;99847.09;;;8.44;100.00
59825;BME280;45703;50.898;6.054;2023-02-23T04:08:31;99850.59;;;8.38;100.00
59825;BME280;45703;50.898;6.054;2023-02-23T04:11:29;99849.38;;;8.40;100.00
59825;BME280;45703;50.898;6.054;2023-02-23T04:14:19;99854.06;;;8.45;100.00
59825;BME280;45703;50.898;6.054;2023-02-23T04:16:48;99856.13;;;8.43;100.00
59825;BME280;45703;50.898;6.054;2023-02-23T04:19:14;99863.06;;;8.44;100.00
59825;BME280;45703;50.898;6.054;2023-02-23T04:21:39;99855.94;;;8.38;100.00
59825;BME280;45703;50.898;6.054;2023-02-23T04:24:05;99864.69;;;8.45;100.00
59825;BME280;45703;50.898;6.054;2023-02-23T04:26:30;99867.97;;;8.47;100.00
59825;BME280;45703;50.898;6.054;2023-02-23T04:28:55;99864.69;;;8.45;100.00
59825;BME280;45703;50.898;6.054;2023-02-23T04:31:21;99865.88;;;8.49;100.00
59825;BME280;45703;50.898;6.054;2023-02-23T04:33:49;99873.88;;;8.49;100.00
59825;BME280;45703;50.898;6.054;2023-02-23T04:36:14;99866.50;;;8.51;100.00
59825;BME280;45703;50.898;6.054;2023-02-23T04:38:39;99878.31;;;8.55;100.00
59825;BME280;45703;50.898;6.054;2023-02-23T04:41:05;99872.00;;;8.49;100.00
59825;BME280;45703;50.898;6.054;2023-02-23T04:43:30;99871.22;;;8.49;100.00
59825;BME280;45703;50.898;6.054;2023-02-23T04:45:55;99872.84;;;8.50;100.00
59825;BME280;45703;50.898;6.054;2023-02-23T04:48:21;99871.66;;;8.46;100.00
59825;BME280;45703;50.898;6.054;2023-02-23T04:50:51;99882.72;;;8.43;100.00
59825;BME280;45703;50.898;6.054;2023-02-23T04:53:16;99869.63;;;8.41;100.00
59825;BME280;45703;50.898;6.054;2023-02-23T04:55:42;99873.72;;;8.44;100.00
59825;BME280;45703;50.898;6.054;2023-02-23T04:58:08;99870.81;;;8.45;100.00
59825;BME280;45703;50.898;6.054;2023-02-23T05:00:38;99870.06;;;8.38;100.00
59825;BME280;45703;50.898;6.054;2023-02-23T05:03:03;99877.41;;;8.43;100.00
59825;BME280;45703;50.898;6.054;2023-02-23T05:05:29;99879.03;;;8.44;100.00
59825;BME280;45703;50.898;6.054;2023-02-23T05:07:54;99873.50;;;8.39;100.00
59825;BME280;45703;50.898;6.054;2023-02-23T05:10:19;99883.50;;;8.43;100.00
59825;BME280;45703;50.898;6.054;2023-02-23T05:12:45;99882.31;;;8.39;100.00
59825;BME280;45703;50.898;6.054;2023-02-23T05:15:11;99878.03;;;8.38;100.00
59825;BME280;45703;50.898;6.054;2023-02-23T05:17:40;99879.69;;;8.33;100.00
59825;BME280;45703;50.898;6.054;2023-02-23T05:20:06;99883.13;;;8.40;100.00
59825;BME280;45703;50.898;6.054;2023-02-23T05:22:32;99884.81;;;8.34;100.00
59825;BME280;45703;50.898;6.054;2023-02-23T05:24:57;99880.13;;;8.30;100.00
59825;BME280;45703;50.898;6.054;2023-02-23T05:27:23;99886.03;;;8.32;100.00
59825;BME280;45703;50.898;6.054;2023-02-23T05:29:48;99892.19;;;8.32;100.00
59825;BME280;45703;50.898;6.054;2023-02-23T05:32:13;99891.38;;;8.32;100.00
59825;BME280;45703;50.898;6.054;2023-02-23T05:34:39;99883.22;;;8.27;100.00
59825;BME280;45703;50.898;6.054;2023-02-23T05:37:04;99888.50;;;8.33;100.00
59825;BME280;45703;50.898;6.054;2023-02-23T05:39:30;99888.88;;;8.37;100.00
59825;BME280;45703;50.898;6.054;2023-02-23T05:41:56;99886.44;;;8.35;100.00
59825;BME280;45703;50.898;6.054;2023-02-23T05:44:22;99894.41;;;8.35;100.00
59825;BME280;45703;50.898;6.054;2023-02-23T05:46:48;99887.66;;;8.33;100.00
59825;BME280;45703;50.898;6.054;2023-02-23T05:49:13;99890.94;;;8.35;100.00
59825;BME280;45703;50.898;6.054;2023-02-23T05:51:39;99892.56;;;8.36;100.00
59825;BME280;45703;50.898;6.054;2023-02-23T05:54:04;99883.78;;;8.35;100.00
59825;BME280;45703;50.898;6.054;2023-02-23T05:56:30;99892.13;;;8.39;100.00
59825;BME280;45703;50.898;6.054;2023-02-23T05:58:56;99886.00;;;8.38;100.00
59825;BME280;45703;50.898;6.054;2023-02-23T06:01:23;99882.34;;;8.33;100.00
59825;BME280;45703;50.898;6.054;2023-02-23T06:03:49;99888.72;;;8.32;100.00
59825;BME280;45703;50.898;6.054;2023-02-23T06:06:16;99884.41;;;8.31;100.00
59825;BME280;45703;50.898;6.054;2023-02-23T06:08:41;99886.03;;;8.32;100.00
59825;BME280;45703;50.898;6.054;2023-02-23T06:11:07;99887.66;;;8.33;100.00
59825;BME280;45703;50.898;6.054;2023-02-23T06:13:33;99888.72;;;8.32;100.00
59825;BME280;45703;50.898;6.054;2023-02-23T06:15:58;99900.97;;;8.33;100.00
59825;BME280;45703;50.898;6.054;2023-02-23T06:18:25;99895.47;;;8.28;100.00
59825;BME280;45703;50.898;6.054;2023-02-23T06:20:50;99910.56;;;8.34;100.00
59825;BME280;45703;50.898;6.054;2023-02-23T06:23:16;99909.19;;;8.31;100.00
59825;BME280;45703;50.898;6.054;2023-02-23T06:25:42;99904.06;;;8.30;100.00
59825;BME280;45703;50.898;6.054;2023-02-23T06:28:08;99907.75;;;8.29;100.00
59825;BME280;45703;50.898;6.054;2023-02-23T06:30:35;99912.44;;;8.33;100.00
59825;BME280;45703;50.898;6.054;2023-02-23T06:33:01;99917.59;;;8.28;100.00
59825;BME280;45703;50.898;6.054;2023-02-23T06:35:26;99919.41;;;8.28;100.00
59825;BME280;45703;50.898;6.054;2023-02-23T06:37:53;99923.72;;;8.29;100.00
59825;BME280;45703;50.898;6.054;2023-02-23T06:40:19;99924.53;;;8.29;100.00
59825;BME280;45703;50.898;6.054;2023-02-23T06:42:44;99922.06;;;8.28;100.00
59825;BME280;45703;50.898;6.054;2023-02-23T06:45:10;99933.31;;;8.30;100.00
59825;BME280;45703;50.898;6.054;2023-02-23T06:47:35;99926.78;;;8.26;100.00
59825;BME280;45703;50.898;6.054;2023-02-23T06:50:01;99930.28;;;8.26;100.00
59825;BME280;45703;50.898;6.054;2023-02-23T06:52:28;99938.03;;;8.28;100.00
59825;BME280;45703;50.898;6.054;2023-02-23T06:54:53;99929.88;;;8.23;100.00
59825;BME280;45703;50.898;6.054;2023-02-23T06:57:19;99942.56;;;8.21;100.00
59825;BME280;45703;50.898;6.054;2023-02-23T06:59:47;99942.56;;;8.21;100.00
59825;BME280;45703;50.898;6.054;2023-02-23T07:02:15;99942.75;;;8.26;100.00
59825;BME280;45703;50.898;6.054;2023-02-23T07:04:41;99944.56;;;8.32;100.00
59825;BME280;45703;50.898;6.054;2023-02-23T07:07:07;99942.97;;;8.24;100.00
59825;BME280;45703;50.898;6.054;2023-02-23T07:09:32;99945.22;;;8.27;100.00
59825;BME280;45703;50.898;6.054;2023-02-23T07:11:58;99944.81;;;8.24;100.00
59825;BME280;45703;50.898;6.054;2023-02-23T07:14:24;99960.34;;;8.27;100.00
59825;BME280;45703;50.898;6.054;2023-02-23T07:16:49;99959.31;;;8.28;100.00
59825;BME280;45703;50.898;6.054;2023-02-23T07:19:14;99967.34;;;8.21;100.00
59825;BME280;45703;50.898;6.054;2023-02-23T07:21:40;99973.63;;;8.27;100.00
59825;BME280;45703;50.898;6.054;2023-02-23T07:24:05;99972.41;;;8.29;100.00
59825;BME280;45703;50.898;6.054;2023-02-23T07:26:31;99968.91;;;8.29;100.00
59825;BME280;45703;50.898;6.054;2023-02-23T07:29:00;99967.47;;;8.33;100.00
59825;BME280;45703;50.898;6.054;2023-02-23T07:31:26;99978.94;;;8.33;100.00
59825;BME280;45703;50.898;6.054;2023-02-23T07:33:53;99986.94;;;8.27;100.00
59825;BME280;45703;50.898;6.054;2023-02-23T07:36:22;99992.41;;;8.32;100.00
59825;BME280;45703;50.898;6.054;2023-02-23T07:38:48;99981.78;;;8.32;100.00
59825;BME280;45703;50.898;6.054;2023-02-23T07:41:13;99994.28;;;8.31;100.00
59825;BME280;45703;50.898;6.054;2023-02-23T07:43:39;99987.94;;;8.32;100.00
59825;BME280;45703;50.898;6.054;2023-02-23T07:46:05;99990.19;;;8.29;100.00
59825;BME280;45703;50.898;6.054;2023-02-23T07:48:30;99993.69;;;8.29;100.00
59825;BME280;45703;50.898;6.054;2023-02-23T07:50:55;99998.78;;;8.31;100.00
59825;BME280;45703;50.898;6.054;2023-02-23T07:53:22;99992.41;;;8.32;100.00
59825;BME280;45703;50.898;6.054;2023-02-23T07:55:54;100001.84;;;8.34;100.00
59825;BME280;45703;50.898;6.054;2023-02-23T07:58:20;99994.88;;;8.33;100.00
59825;BME280;45703;50.898;6.054;2023-02-23T08:00:45;99998.94;;;8.36;100.00
59825;BME280;45703;50.898;6.054;2023-02-23T08:03:11;99999.56;;;8.38;100.00
59825;BME280;45703;50.898;6.054;2023-02-23T08:05:36;100002.81;;;8.40;100.00
59825;BME280;45703;50.898;6.054;2023-02-23T08:08:07;100002.22;;;8.38;100.00
59825;BME280;45703;50.898;6.054;2023-02-23T08:10:32;100001.00;;;8.34;100.00
59825;BME280;45703;50.898;6.054;2023-02-23T08:12:57;100005.94;;;8.30;100.00
59825;BME280;45703;50.898;6.054;2023-02-23T08:15:24;100006.31;;;8.34;100.00
59825;BME280;45703;50.898;6.054;2023-02-23T08:17:49;100013.69;;;8.32;100.00
59825;BME280;45703;50.898;6.054;2023-02-23T08:20:15;100013.69;;;8.32;100.00
59825;BME280;45703;50.898;6.054;2023-02-23T08:22:40;100023.91;;;8.35;100.00
59825;BME280;45703;50.898;6.054;2023-02-23T08:25:06;100029.47;;;8.33;100.00
59825;BME280;45703;50.898;6.054;2023-02-23T08:27:36;100030.06;;;8.35;100.00
59825;BME280;45703;50.898;6.054;2023-02-23T08:30:03;100031.28;;;8.33;100.00
59825;BME280;45703;50.898;6.054;2023-02-23T08:32:33;100025.59;;;8.29;100.00
59825;BME280;45703;50.898;6.054;2023-02-23T08:35:00;100027.00;;;8.32;100.00
59825;BME280;45703;50.898;6.054;2023-02-23T08:37:27;100039.88;;;8.35;100.00
59825;BME280;45703;50.898;6.054;2023-02-23T08:39:56;100034.56;;;8.35;100.00
59825;BME280;45703;50.898;6.054;2023-02-23T08:42:21;100032.91;;;8.34;100.00
59825;BME280;45703;50.898;6.054;2023-02-23T08:44:47;100050.50;;;8.35;100.00
59825;BME280;45703;50.898;6.054;2023-02-23T08:47:16;100039.09;;;8.28;100.00
59825;BME280;45703;50.898;6.054;2023-02-23T08:49:47;100041.75;;;8.28;100.00
59825;BME280;45703;50.898;6.054;2023-02-23T08:52:13;100043.59;;;8.27;100.00
59825;BME280;45703;50.898;6.054;2023-02-23T08:54:38;100042.38;;;8.17;100.00
59825;BME280;45703;50.898;6.054;2023-02-23T08:57:04;100037.69;;;8.12;100.00
59825;BME280;45703;50.898;6.054;2023-02-23T08:59:29;100039.13;;;8.08;100.00
59825;BME280;45703;50.898;6.054;2023-02-23T09:01:55;100051.19;;;8.11;100.00
59825;BME280;45703;50.898;6.054;2023-02-23T09:04:20;100053.88;;;8.04;100.00
59825;BME280;45703;50.898;6.054;2023-02-23T09:06:46;100056.31;;;8.06;100.00
59825;BME280;45703;50.898;6.054;2023-02-23T09:09:12;100051.00;;;8.06;100.00
59825;BME280;45703;50.898;6.054;2023-02-23T09:11:37;100048.13;;;8.07;100.00
59825;BME280;45703;50.898;6.054;2023-02-23T09:14:03;100051.41;;;8.09;100.00
59825;BME280;45703;50.898;6.054;2023-02-23T09:16:28;100058.34;;;8.10;100.00
59825;BME280;45703;50.898;6.054;2023-02-23T09:18:54;100064.50;;;8.11;100.00
59825;BME280;45703;50.898;6.054;2023-02-23T09:21:20;100060.38;;;8.15;100.00
59825;BME280;45703;50.898;6.054;2023-02-23T09:23:49;100069.38;;;8.14;100.00
59825;BME280;45703;50.898;6.054;2023-02-23T09:26:16;100064.50;;;8.11;100.00
59825;BME280;45703;50.898;6.054;2023-02-23T09:28:43;100072.25;;;8.12;100.00
59825;BME280;45703;50.898;6.054;2023-02-23T09:31:11;100073.31;;;8.05;100.00
59825;BME280;45703;50.898;6.054;2023-02-23T09:33:37;100067.38;;;8.03;100.00
59825;BME280;45703;50.898;6.054;2023-02-23T09:36:11;100071.88;;;8.09;100.00
59825;BME280;45703;50.898;6.054;2023-02-23T09:38:38;100081.28;;;8.05;100.00
59825;BME280;45703;50.898;6.054;2023-02-23T09:43:58;100087.63;;;8.04;100.00
59825;BME280;45703;50.898;6.054;2023-02-23T09:49:17;100084.97;;;7.97;100.00
59825;BME280;45703;50.898;6.054;2023-02-23T09:51:47;100086.59;;;7.98;100.00
59825;BME280;45703;50.898;6.054;2023-02-23T09:54:16;100098.03;;;8.05;100.00
59825;BME280;45703;50.898;6.054;2023-02-23T09:56:45;100098.03;;;8.05;100.00
59825;BME280;45703;50.898;6.054;2023-02-23T09:59:14;100110.09;;;8.08;100.00
59825;BME280;45703;50.898;6.054;2023-02-23T10:04:21;100111.31;;;8.12;100.00
59825;BME280;45703;50.898;6.054;2023-02-23T10:06:58;100110.28;;;8.13;100.00
59825;BME280;45703;50.898;6.054;2023-02-23T10:09:46;100118.03;;;8.14;100.00
59825;BME280;45703;50.898;6.054;2023-02-23T10:23:29;100131.56;;;8.06;100.00
59825;BME280;45703;50.898;6.054;2023-02-23T10:25:58;100135.47;;;8.04;100.00
59825;BME280;45703;50.898;6.054;2023-02-23T10:28:26;100130.16;;;8.04;100.00
59825;BME280;45703;50.898;6.054;2023-02-23T10:30:54;100129.53;;;8.02;100.00
59825;BME280;45703;50.898;6.054;2023-02-23T10:33:25;100120.34;;;7.98;100.00
59825;BME280;45703;50.898;6.054;2023-02-23T10:35:59;100135.28;;;7.99;100.00
59825;BME280;45703;50.898;6.054;2023-02-23T10:38:30;100134.66;;;8.03;100.00
59825;BME280;45703;50.898;6.054;2023-02-23T10:40:55;100136.09;;;8.06;100.00
59825;BME280;45703;50.898;6.054;2023-02-23T10:43:21;100140.19;;;8.02;100.00
59825;BME280;45703;50.898;6.054;2023-02-23T10:45:49;100129.97;;;7.99;100.00
59825;BME280;45703;50.898;6.054;2023-02-23T10:48:28;100134.88;;;7.95;100.00
59825;BME280;45703;50.898;6.054;2023-02-23T10:50:56;100134.88;;;8.02;100.00
59825;BME280;45703;50.898;6.054;2023-02-23T10:53:33;100135.88;;;8.01;100.00
59825;BME280;45703;50.898;6.054;2023-02-23T10:56:11;100139.16;;;8.03;100.00
59825;BME280;45703;50.898;6.054;2023-02-23T10:58:45;100140.19;;;8.02;100.00
59825;BME280;45703;50.898;6.054;2023-02-23T11:01:15;100138.13;;;7.97;100.00
59825;BME280;45703;50.898;6.054;2023-02-23T11:03:47;100132.41;;;8.00;100.00
59825;BME280;45703;50.898;6.054;2023-02-23T11:06:35;100143.03;;;8.07;100.00
59825;BME280;45703;50.898;6.054;2023-02-23T11:09:24;100143.03;;;8.07;100.00
59825;BME280;45703;50.898;6.054;2023-02-23T11:12:14;100144.25;;;8.11;100.00
59825;BME280;45703;50.898;6.054;2023-02-23T11:14:46;100148.31;;;8.13;100.00
59825;BME280;45703;50.898;6.054;2023-02-23T11:17:34;100146.72;;;8.19;100.00
59825;BME280;45703;50.898;6.054;2023-02-23T11:22:42;100143.88;;;8.20;100.00
59825;BME280;45703;50.898;6.054;2023-02-23T11:27:52;100151.63;;;8.22;100.00
59825;BME280;45703;50.898;6.054;2023-02-23T11:30:22;100138.75;;;8.19;100.00
59825;BME280;45703;50.898;6.054;2023-02-23T11:32:52;100142.41;;;8.24;100.00
59825;BME280;45703;50.898;6.054;2023-02-23T11:37:43;100141.78;;;8.29;100.00
59825;BME280;45703;50.898;6.054;2023-02-23T11:40:23;100145.47;;;8.28;100.00
59825;BME280;45703;50.898;6.054;2023-02-23T11:42:54;100144.25;;;8.30;100.00
59825;BME280;45703;50.898;6.054;2023-02-23T11:45:21;100135.66;;;8.22;100.00
59825;BME280;45703;50.898;6.054;2023-02-23T11:47:53;100137.47;;;8.28;100.00
59825;BME280;45703;50.898;6.054;2023-02-23T11:50:22;100123.16;;;8.29;100.00
59825;BME280;45703;50.898;6.054;2023-02-23T11:52:57;100138.09;;;8.36;100.00
59825;BME280;45703;50.898;6.054;2023-02-23T11:55:24;100126.00;;;8.34;100.00
59825;BME280;45703;50.898;6.054;2023-02-23T11:57:50;100138.06;;;8.43;100.00
59825;BME280;45703;50.898;6.054;2023-02-23T12:00:24;100132.53;;;8.51;100.00
59825;BME280;45703;50.898;6.054;2023-02-23T12:02:55;100132.69;;;8.56;100.00
59825;BME280;45703;50.898;6.054;2023-02-23T12:05:30;100139.59;;;8.63;100.00
59825;BME280;45703;50.898;6.054;2023-02-23T12:07:58;100126.97;;;8.58;100.00
59825;BME280;45703;50.898;6.054;2023-02-23T12:20:49;100120.94;;;8.76;100.00
59825;BME280;45703;50.898;6.054;2023-02-23T12:23:21;100125.19;;;8.83;100.00
59825;BME280;45703;50.898;6.054;2023-02-23T12:26:04;100120.66;;;8.90;100.00
59825;BME280;45703;50.898;6.054;2023-02-23T12:28:42;100125.75;;;8.98;100.00
59825;BME280;45703;50.898;6.054;2023-02-23T12:31:27;100121.97;;;9.12;100.00
59825;BME280;45703;50.898;6.054;2023-02-23T12:34:16;100113.13;;;9.18;100.00
59825;BME280;45703;50.898;6.054;2023-02-23T12:36:50;100118.44;;;9.18;100.00
59825;BME280;45703;50.898;6.054;2023-02-23T12:46:50;100120.31;;;9.42;100.00
59825;BME280;45703;50.898;6.054;2023-02-23T12:49:43;100123.16;;;9.47;100.00
59825;BME280;45703;50.898;6.054;2023-02-23T12:52:26;100106.81;;;9.37;100.00
59825;BME280;45703;50.898;6.054;2023-02-23T12:54:54;100114.38;;;9.40;100.00
59825;BME280;45703;50.898;6.054;2023-02-23T12:57:45;100114.19;;;9.42;100.00
59825;BME280;45703;50.898;6.054;2023-02-23T13:00:32;100108.63;;;9.43;100.00
59825;BME280;45703;50.898;6.054;2023-02-23T13:11:24;100105.03;;;9.56;100.00
59825;BME280;45703;50.898;6.054;2023-02-23T13:16:31;100109.88;;;9.65;100.00
59825;BME280;45703;50.898;6.054;2023-02-23T13:25:12;100113.53;;;9.46;100.00
59825;BME280;45703;50.898;6.054;2023-02-23T13:27:48;100116.56;;;9.50;100.00
59825;BME280;45703;50.898;6.054;2023-02-23T13:30:16;100108.63;;;9.43;100.00
59825;BME280;45703;50.898;6.054;2023-02-23T13:32:42;100105.75;;;9.45;100.00
59825;BME280;45703;50.898;6.054;2023-02-23T13:35:13;100120.50;;;9.47;100.00
59825;BME280;45703;50.898;6.054;2023-02-23T13:37:54;100115.78;;;9.49;100.00
59825;BME280;45703;50.898;6.054;2023-02-23T13:40:48;100120.66;;;9.52;100.00
59825;BME280;45703;50.898;6.054;2023-02-23T13:46:53;100114.47;;;9.58;100.00
59825;BME280;45703;50.898;6.054;2023-02-23T13:49:39;100110.31;;;9.62;100.00
59825;BME280;45703;50.898;6.054;2023-02-23T13:52:31;100105.00;;;9.62;100.00
59825;BME280;45703;50.898;6.054;2023-02-23T13:54:59;100113.34;;;9.66;100.00
59825;BME280;45703;50.898;6.054;2023-02-23T13:57:28;100116.84;;;9.66;100.00
59825;BME280;45703;50.898;6.054;2023-02-23T13:59:54;100119.56;;;9.60;100.00
59825;BME280;45703;50.898;6.054;2023-02-23T14:05:01;100116.09;;;9.59;100.00
59825;BME280;45703;50.898;6.054;2023-02-23T14:07:30;100115.78;;;9.49;100.00
59825;BME280;45703;50.898;6.054;2023-02-23T14:10:07;100115.78;;;9.49;100.00
59825;BME280;45703;50.898;6.054;2023-02-23T14:12:41;100113.78;;;9.38;100.00
59825;BME280;45703;50.898;6.054;2023-02-23T14:18:03;100114.66;;;9.32;100.00
59825;BME280;45703;50.898;6.054;2023-02-23T14:25:48;100132.34;;;9.20;100.00
59825;BME280;45703;50.898;6.054;2023-02-23T14:38:59;100132.88;;;9.04;100.00
59825;BME280;45703;50.898;6.054;2023-02-23T14:44:18;100131.91;;;8.92;100.00
59825;BME280;45703;50.898;6.054;2023-02-23T14:47:05;100132.53;;;8.94;100.00
59825;BME280;45703;50.898;6.054;2023-02-23T14:49:33;100135.38;;;8.93;100.00
59825;BME280;45703;50.898;6.054;2023-02-23T14:52:05;100130.91;;;8.93;100.00
59825;BME280;45703;50.898;6.054;2023-02-23T14:54:33;100141.91;;;8.97;100.00
59825;BME280;45703;50.898;6.054;2023-02-23T14:57:01;100144.41;;;8.92;100.00
59825;BME280;45703;50.898;6.054;2023-02-23T14:59:35;100144.00;;;8.88;100.00
59825;BME280;45703;50.898;6.054;2023-02-23T15:02:07;100148.72;;;8.86;100.00
59825;BME280;45703;50.898;6.054;2023-02-23T15:04:33;100141.59;;;8.80;100.00
59825;BME280;45703;50.898;6.054;2023-02-23T15:07:03;100145.69;;;8.76;100.00
59825;BME280;45703;50.898;6.054;2023-02-23T15:09:40;100149.38;;;8.75;100.00
59825;BME280;45703;50.898;6.054;2023-02-23T15:12:14;100147.34;;;8.77;100.00
59825;BME280;45703;50.898;6.054;2023-02-23T15:14:41;100146.31;;;8.78;100.00